sensor_id;sensor_type;location;lat;lon;timestamp;temperature;humidity
31991;DHT22;18508;49.386;8.370;2022-09-04T00:02:03;15.80;99.90
31991;DHT22;18508;49.386;8.370;2022-09-04T00:04:40;15.80;99.90
31991;DHT22;18508;49.386;8.370;2022-09-04T00:07:19;15.70;99.90
31991;DHT22;18508;49.386;8.370;2022-09-04T00:09:57;15.70;99.90
31991;DHT22;18508;49.386;8.370;2022-09-04T00:12:32;15.70;99.90
31991;DHT22;18508;49.386;8.370;2022-09-04T00:15:07;15.80;99.90
31991;DHT22;18508;49.386;8.370;2022-09-04T00:17:45;15.80;99.90
31991;DHT22;18508;49.386;8.370;2022-09-04T00:20:27;15.70;99.90
31991;DHT22;18508;49.386;8.370;2022-09-04T00:23:01;15.70;99.90
31991;DHT22;18508;49.386;8.370;2022-09-04T00:25:40;15.70;99.90
31991;DHT22;18508;49.386;8.370;2022-09-04T00:28:18;15.70;99.90
31991;DHT22;18508;49.386;8.370;2022-09-04T00:30:57;15.70;99.90
31991;DHT22;18508;49.386;8.370;2022-09-04T00:33:37;15.70;99.90
31991;DHT22;18508;49.386;8.370;2022-09-04T00:36:11;15.60;99.90
31991;DHT22;18508;49.386;8.370;2022-09-04T00:38:46;15.60;99.90
31991;DHT22;18508;49.386;8.370;2022-09-04T00:41:26;15.60;99.90
31991;DHT22;18508;49.386;8.370;2022-09-04T00:44:12;15.60;99.90
31991;DHT22;18508;49.386;8.370;2022-09-04T00:47:05;15.60;99.90
31991;DHT22;18508;49.386;8.370;2022-09-04T00:49:51;15.60;99.90
31991;DHT22;18508;49.386;8.370;2022-09-04T00:52:33;15.60;99.90
31991;DHT22;18508;49.386;8.370;2022-09-04T00:55:25;15.50;99.90
31991;DHT22;18508;49.386;8.370;2022-09-04T00:58:09;15.60;99.90
31991;DHT22;18508;49.386;8.370;2022-09-04T01:00:41;15.50;99.90
31991;DHT22;18508;49.386;8.370;2022-09-04T01:06:33;15.40;99.90
31991;DHT22;18508;49.386;8.370;2022-09-04T01:09:16;15.30;99.90
31991;DHT22;18508;49.386;8.370;2022-09-04T01:12:00;15.30;99.90
31991;DHT22;18508;49.386;8.370;2022-09-04T01:14:37;15.30;99.90
31991;DHT22;18508;49.386;8.370;2022-09-04T01:17:23;15.20;99.90
31991;DHT22;18508;49.386;8.370;2022-09-04T01:19:57;15.20;99.90
31991;DHT22;18508;49.386;8.370;2022-09-04T01:25:57;15.20;99.90
31991;DHT22;18508;49.386;8.370;2022-09-04T01:28:33;15.20;99.90
31991;DHT22;18508;49.386;8.370;2022-09-04T01:31:08;15.20;99.90
31991;DHT22;18508;49.386;8.370;2022-09-04T01:33:45;15.20;99.90
31991;DHT22;18508;49.386;8.370;2022-09-04T01:36:31;15.20;99.90
31991;DHT22;18508;49.386;8.370;2022-09-04T01:39:02;15.20;99.90
31991;DHT22;18508;49.386;8.370;2022-09-04T01:41:36;15.20;99.90
31991;DHT22;18508;49.386;8.370;2022-09-04T01:44:07;15.10;99.90
31991;DHT22;18508;49.386;8.370;2022-09-04T01:46:45;15.10;99.90
31991;DHT22;18508;49.386;8.370;2022-09-04T01:49:28;15.10;99.90
31991;DHT22;18508;49.386;8.370;2022-09-04T01:52:08;15.10;99.90
31991;DHT22;18508;49.386;8.370;2022-09-04T01:54:48;15.00;99.90
31991;DHT22;18508;49.386;8.370;2022-09-04T01:57:31;15.00;99.90
31991;DHT22;18508;49.386;8.370;2022-09-04T02:00:07;15.00;99.90
31991;DHT22;18508;49.386;8.370;2022-09-04T02:02:46;15.10;99.90
31991;DHT22;18508;49.386;8.370;2022-09-04T02:05:19;15.10;99.90
31991;DHT22;18508;49.386;8.370;2022-09-04T02:07:53;15.00;99.90
31991;DHT22;18508;49.386;8.370;2022-09-04T02:10:33;15.00;99.90
31991;DHT22;18508;49.386;8.370;2022-09-04T02:13:14;15.00;99.90
31991;DHT22;18508;49.386;8.370;2022-09-04T02:15:54;15.00;99.90
31991;DHT22;18508;49.386;8.370;2022-09-04T02:18:33;14.90;99.90
31991;DHT22;18508;49.386;8.370;2022-09-04T02:21:19;14.90;99.90
31991;DHT22;18508;49.386;8.370;2022-09-04T02:24:02;14.80;99.90
31991;DHT22;18508;49.386;8.370;2022-09-04T02:26:36;14.70;99.90
31991;DHT22;18508;49.386;8.370;2022-09-04T02:29:16;14.70;99.90
31991;DHT22;18508;49.386;8.370;2022-09-04T02:31:53;14.70;99.90
31991;DHT22;18508;49.386;8.370;2022-09-04T02:34:31;14.70;99.90
31991;DHT22;18508;49.386;8.370;2022-09-04T02:37:08;14.70;99.90
31991;DHT22;18508;49.386;8.370;2022-09-04T02:39:50;14.70;99.90
31991;DHT22;18508;49.386;8.370;2022-09-04T02:42:30;14.70;99.90
31991;DHT22;18508;49.386;8.370;2022-09-04T02:45:12;14.60;99.90
31991;DHT22;18508;49.386;8.370;2022-09-04T02:47:47;14.60;99.90
31991;DHT22;18508;49.386;8.370;2022-09-04T02:50:28;14.50;99.90
31991;DHT22;18508;49.386;8.370;2022-09-04T02:53:08;14.50;99.90
31991;DHT22;18508;49.386;8.370;2022-09-04T02:56:00;14.50;99.90
31991;DHT22;18508;49.386;8.370;2022-09-04T02:58:42;14.50;99.90
31991;DHT22;18508;49.386;8.370;2022-09-04T03:01:20;14.50;99.90
31991;DHT22;18508;49.386;8.370;2022-09-04T03:03:59;14.40;99.90
31991;DHT22;18508;49.386;8.370;2022-09-04T03:06:43;14.40;99.90
31991;DHT22;18508;49.386;8.370;2022-09-04T03:09:14;14.40;99.90
31991;DHT22;18508;49.386;8.370;2022-09-04T03:11:49;14.40;99.90
31991;DHT22;18508;49.386;8.370;2022-09-04T03:14:25;14.40;99.90
31991;DHT22;18508;49.386;8.370;2022-09-04T03:17:07;14.40;99.90
31991;DHT22;18508;49.386;8.370;2022-09-04T03:19:42;14.40;99.90
31991;DHT22;18508;49.386;8.370;2022-09-04T03:22:17;14.40;99.90
31991;DHT22;18508;49.386;8.370;2022-09-04T03:25:02;14.40;99.90
31991;DHT22;18508;49.386;8.370;2022-09-04T03:27:33;14.40;99.90
31991;DHT22;18508;49.386;8.370;2022-09-04T03:30:06;14.40;99.90
31991;DHT22;18508;49.386;8.370;2022-09-04T03:32:43;14.40;99.90
31991;DHT22;18508;49.386;8.370;2022-09-04T03:35:19;14.40;99.90
31991;DHT22;18508;49.386;8.370;2022-09-04T03:38:13;14.40;99.90
31991;DHT22;18508;49.386;8.370;2022-09-04T03:40:53;14.40;99.90
31991;DHT22;18508;49.386;8.370;2022-09-04T03:43:39;14.30;99.90
31991;DHT22;18508;49.386;8.370;2022-09-04T03:46:20;14.30;99.90
31991;DHT22;18508;49.386;8.370;2022-09-04T03:49:03;14.20;99.90
31991;DHT22;18508;49.386;8.370;2022-09-04T03:51:42;14.20;99.90
31991;DHT22;18508;49.386;8.370;2022-09-04T03:54:25;14.20;99.90
31991;DHT22;18508;49.386;8.370;2022-09-04T03:57:07;14.20;99.90
31991;DHT22;18508;49.386;8.370;2022-09-04T03:59:52;14.20;99.90
31991;DHT22;18508;49.386;8.370;2022-09-04T04:02:33;14.20;99.90
31991;DHT22;18508;49.386;8.370;2022-09-04T04:05:37;14.20;99.90
31991;DHT22;18508;49.386;8.370;2022-09-04T04:11:28;14.20;99.90
31991;DHT22;18508;49.386;8.370;2022-09-04T04:14:27;14.30;99.90
31991;DHT22;18508;49.386;8.370;2022-09-04T04:17:15;14.30;99.90
31991;DHT22;18508;49.386;8.370;2022-09-04T04:19:57;14.30;99.90
31991;DHT22;18508;49.386;8.370;2022-09-04T04:22:47;14.40;99.90
31991;DHT22;18508;49.386;8.370;2022-09-04T04:25:44;14.40;99.90
31991;DHT22;18508;49.386;8.370;2022-09-04T04:28:34;14.40;99.90
31991;DHT22;18508;49.386;8.370;2022-09-04T04:31:14;14.40;99.90
31991;DHT22;18508;49.386;8.370;2022-09-04T04:33:54;14.40;99.90
31991;DHT22;18508;49.386;8.370;2022-09-04T04:36:33;14.30;99.90
31991;DHT22;18508;49.386;8.370;2022-09-04T04:39:18;14.30;99.90
31991;DHT22;18508;49.386;8.370;2022-09-04T04:45:08;14.30;99.90
31991;DHT22;18508;49.386;8.370;2022-09-04T04:48:14;14.30;99.90
31991;DHT22;18508;49.386;8.370;2022-09-04T04:51:07;14.30;99.90
31991;DHT22;18508;49.386;8.370;2022-09-04T04:53:44;14.40;99.90
31991;DHT22;18508;49.386;8.370;2022-09-04T04:56:19;14.40;99.90
31991;DHT22;18508;49.386;8.370;2022-09-04T04:58:57;14.40;99.90
31991;DHT22;18508;49.386;8.370;2022-09-04T05:01:43;14.40;99.90
31991;DHT22;18508;49.386;8.370;2022-09-04T05:04:24;14.50;99.90
31991;DHT22;18508;49.386;8.370;2022-09-04T05:06:58;14.50;99.90
31991;DHT22;18508;49.386;8.370;2022-09-04T05:09:39;14.50;99.90
31991;DHT22;18508;49.386;8.370;2022-09-04T05:12:18;14.50;99.90
31991;DHT22;18508;49.386;8.370;2022-09-04T05:14:53;14.50;99.90
31991;DHT22;18508;49.386;8.370;2022-09-04T05:17:32;14.60;99.90
31991;DHT22;18508;49.386;8.370;2022-09-04T05:20:24;14.60;99.90
31991;DHT22;18508;49.386;8.370;2022-09-04T05:23:00;14.60;99.90
31991;DHT22;18508;49.386;8.370;2022-09-04T05:25:37;14.60;99.90
31991;DHT22;18508;49.386;8.370;2022-09-04T05:28:20;14.70;99.90
31991;DHT22;18508;49.386;8.370;2022-09-04T05:31:02;14.60;99.90
31991;DHT22;18508;49.386;8.370;2022-09-04T05:33:37;14.70;99.90
31991;DHT22;18508;49.386;8.370;2022-09-04T05:36:15;14.70;99.90
31991;DHT22;18508;49.386;8.370;2022-09-04T05:38:54;14.70;99.90
31991;DHT22;18508;49.386;8.370;2022-09-04T05:41:35;14.70;99.90
31991;DHT22;18508;49.386;8.370;2022-09-04T05:44:30;14.80;99.90
31991;DHT22;18508;49.386;8.370;2022-09-04T05:47:10;14.80;99.90
31991;DHT22;18508;49.386;8.370;2022-09-04T05:49:56;14.80;99.90
31991;DHT22;18508;49.386;8.370;2022-09-04T05:52:47;14.80;99.90
31991;DHT22;18508;49.386;8.370;2022-09-04T05:55:40;14.90;99.90
31991;DHT22;18508;49.386;8.370;2022-09-04T05:58:26;14.90;99.90
31991;DHT22;18508;49.386;8.370;2022-09-04T06:01:15;15.00;99.90
31991;DHT22;18508;49.386;8.370;2022-09-04T06:04:02;15.00;99.90
31991;DHT22;18508;49.386;8.370;2022-09-04T06:06:39;15.00;99.90
31991;DHT22;18508;49.386;8.370;2022-09-04T06:09:21;15.10;99.90
31991;DHT22;18508;49.386;8.370;2022-09-04T06:12:04;15.20;99.90
31991;DHT22;18508;49.386;8.370;2022-09-04T06:15:02;15.30;99.90
31991;DHT22;18508;49.386;8.370;2022-09-04T06:17:54;15.40;99.90
31991;DHT22;18508;49.386;8.370;2022-09-04T06:20:37;15.40;99.90
31991;DHT22;18508;49.386;8.370;2022-09-04T06:23:18;15.60;99.90
31991;DHT22;18508;49.386;8.370;2022-09-04T06:26:14;15.70;99.90
31991;DHT22;18508;49.386;8.370;2022-09-04T06:29:01;15.80;99.90
31991;DHT22;18508;49.386;8.370;2022-09-04T06:32:01;15.90;99.90
31991;DHT22;18508;49.386;8.370;2022-09-04T06:34:44;15.90;99.90
31991;DHT22;18508;49.386;8.370;2022-09-04T06:37:25;16.10;99.90
31991;DHT22;18508;49.386;8.370;2022-09-04T06:40:12;16.20;99.90
31991;DHT22;18508;49.386;8.370;2022-09-04T06:42:54;16.20;99.90
31991;DHT22;18508;49.386;8.370;2022-09-04T06:45:34;16.30;99.90
31991;DHT22;18508;49.386;8.370;2022-09-04T06:48:19;16.30;99.90
31991;DHT22;18508;49.386;8.370;2022-09-04T06:51:00;16.20;99.90
31991;DHT22;18508;49.386;8.370;2022-09-04T06:53:38;16.20;99.90
31991;DHT22;18508;49.386;8.370;2022-09-04T06:56:19;16.20;99.90
31991;DHT22;18508;49.386;8.370;2022-09-04T07:01:57;16.50;99.90
31991;DHT22;18508;49.386;8.370;2022-09-04T07:04:43;16.60;99.90
31991;DHT22;18508;49.386;8.370;2022-09-04T07:07:37;16.80;99.90
31991;DHT22;18508;49.386;8.370;2022-09-04T07:10:08;16.90;99.90
31991;DHT22;18508;49.386;8.370;2022-09-04T07:15:40;17.10;99.90
31991;DHT22;18508;49.386;8.370;2022-09-04T07:18:22;17.10;99.90
31991;DHT22;18508;49.386;8.370;2022-09-04T07:21:02;17.00;99.90
31991;DHT22;18508;49.386;8.370;2022-09-04T07:23:41;17.00;99.90
31991;DHT22;18508;49.386;8.370;2022-09-04T07:26:20;17.20;99.90
31991;DHT22;18508;49.386;8.370;2022-09-04T07:29:04;17.40;99.90
31991;DHT22;18508;49.386;8.370;2022-09-04T07:31:38;17.50;99.90
31991;DHT22;18508;49.386;8.370;2022-09-04T07:34:13;17.70;99.90
31991;DHT22;18508;49.386;8.370;2022-09-04T07:36:48;17.80;99.90
31991;DHT22;18508;49.386;8.370;2022-09-04T07:39:28;18.00;99.90
31991;DHT22;18508;49.386;8.370;2022-09-04T07:42:03;18.00;99.90
31991;DHT22;18508;49.386;8.370;2022-09-04T07:44:38;18.00;99.90
31991;DHT22;18508;49.386;8.370;2022-09-04T07:47:16;18.20;99.90
31991;DHT22;18508;49.386;8.370;2022-09-04T07:49:52;18.40;99.90
31991;DHT22;18508;49.386;8.370;2022-09-04T07:52:33;18.40;99.90
31991;DHT22;18508;49.386;8.370;2022-09-04T07:55:16;18.40;99.90
31991;DHT22;18508;49.386;8.370;2022-09-04T07:58:13;18.40;99.90
31991;DHT22;18508;49.386;8.370;2022-09-04T08:00:57;18.60;99.90
31991;DHT22;18508;49.386;8.370;2022-09-04T08:03:56;18.90;99.90
31991;DHT22;18508;49.386;8.370;2022-09-04T08:06:32;19.00;99.90
31991;DHT22;18508;49.386;8.370;2022-09-04T08:09:22;19.10;99.90
31991;DHT22;18508;49.386;8.370;2022-09-04T08:12:27;19.20;99.90
31991;DHT22;18508;49.386;8.370;2022-09-04T08:15:13;19.30;99.90
31991;DHT22;18508;49.386;8.370;2022-09-04T08:18:12;19.40;99.90
31991;DHT22;18508;49.386;8.370;2022-09-04T08:20:54;19.40;99.90
31991;DHT22;18508;49.386;8.370;2022-09-04T08:23:45;19.80;99.90
31991;DHT22;18508;49.386;8.370;2022-09-04T08:26:18;19.80;99.90
31991;DHT22;18508;49.386;8.370;2022-09-04T08:29:05;19.80;99.90
31991;DHT22;18508;49.386;8.370;2022-09-04T08:31:44;20.00;99.90
31991;DHT22;18508;49.386;8.370;2022-09-04T08:34:41;20.20;99.90
31991;DHT22;18508;49.386;8.370;2022-09-04T08:37:20;20.30;99.90
31991;DHT22;18508;49.386;8.370;2022-09-04T08:40:08;20.40;99.90
31991;DHT22;18508;49.386;8.370;2022-09-04T08:43:09;20.50;99.90
31991;DHT22;18508;49.386;8.370;2022-09-04T08:49:32;20.70;99.90
31991;DHT22;18508;49.386;8.370;2022-09-04T08:55:34;20.60;99.90
31991;DHT22;18508;49.386;8.370;2022-09-04T09:01:33;20.70;99.90
31991;DHT22;18508;49.386;8.370;2022-09-04T09:07:28;20.60;99.90
31991;DHT22;18508;49.386;8.370;2022-09-04T09:10:35;21.00;99.90
31991;DHT22;18508;49.386;8.370;2022-09-04T09:16:19;21.60;99.90
31991;DHT22;18508;49.386;8.370;2022-09-04T09:19:18;22.00;99.90
31991;DHT22;18508;49.386;8.370;2022-09-04T09:22:07;21.70;99.90
31991;DHT22;18508;49.386;8.370;2022-09-04T09:25:16;21.90;99.90
31991;DHT22;18508;49.386;8.370;2022-09-04T09:28:18;21.90;99.90
31991;DHT22;18508;49.386;8.370;2022-09-04T09:34:43;21.80;99.90
31991;DHT22;18508;49.386;8.370;2022-09-04T09:37:40;21.70;99.90
31991;DHT22;18508;49.386;8.370;2022-09-04T09:40:39;21.70;99.90
31991;DHT22;18508;49.386;8.370;2022-09-04T09:46:37;21.80;99.90
31991;DHT22;18508;49.386;8.370;2022-09-04T09:52:57;22.00;99.90
31991;DHT22;18508;49.386;8.370;2022-09-04T09:59:04;22.20;99.90
31991;DHT22;18508;49.386;8.370;2022-09-04T10:01:55;22.30;99.90
31991;DHT22;18508;49.386;8.370;2022-09-04T10:04:56;22.50;99.90
31991;DHT22;18508;49.386;8.370;2022-09-04T10:07:59;22.60;99.90
31991;DHT22;18508;49.386;8.370;2022-09-04T10:13:56;22.90;99.90
31991;DHT22;18508;49.386;8.370;2022-09-04T10:16:55;22.90;99.90
31991;DHT22;18508;49.386;8.370;2022-09-04T10:23:00;22.90;99.90
31991;DHT22;18508;49.386;8.370;2022-09-04T10:29:18;23.10;99.90
31991;DHT22;18508;49.386;8.370;2022-09-04T10:32:30;23.50;99.90
31991;DHT22;18508;49.386;8.370;2022-09-04T10:35:21;23.60;99.90
31991;DHT22;18508;49.386;8.370;2022-09-04T10:38:25;23.90;99.90
31991;DHT22;18508;49.386;8.370;2022-09-04T10:41:23;23.90;99.90
31991;DHT22;18508;49.386;8.370;2022-09-04T10:44:08;24.10;99.90
31991;DHT22;18508;49.386;8.370;2022-09-04T10:46:53;24.40;99.90
31991;DHT22;18508;49.386;8.370;2022-09-04T10:49:52;24.50;99.90
31991;DHT22;18508;49.386;8.370;2022-09-04T10:55:38;24.20;99.90
31991;DHT22;18508;49.386;8.370;2022-09-04T10:58:25;23.90;99.90
31991;DHT22;18508;49.386;8.370;2022-09-04T11:01:18;24.10;99.90
31991;DHT22;18508;49.386;8.370;2022-09-04T11:04:17;24.30;99.90
31991;DHT22;18508;49.386;8.370;2022-09-04T11:07:21;24.60;99.90
31991;DHT22;18508;49.386;8.370;2022-09-04T11:16:29;24.80;99.90
31991;DHT22;18508;49.386;8.370;2022-09-04T11:19:36;24.80;99.90
31991;DHT22;18508;49.386;8.370;2022-09-04T11:28:58;25.50;97.00
31991;DHT22;18508;49.386;8.370;2022-09-04T11:31:48;25.70;88.20
31991;DHT22;18508;49.386;8.370;2022-09-04T11:38:07;25.50;97.90
31991;DHT22;18508;49.386;8.370;2022-09-04T11:41:07;25.60;95.60
31991;DHT22;18508;49.386;8.370;2022-09-04T11:44:06;25.60;89.10
31991;DHT22;18508;49.386;8.370;2022-09-04T11:53:03;26.10;69.40
31991;DHT22;18508;49.386;8.370;2022-09-04T11:58:37;26.30;50.80
31991;DHT22;18508;49.386;8.370;2022-09-04T12:01:23;26.30;53.40
31991;DHT22;18508;49.386;8.370;2022-09-04T12:04:28;26.50;57.30
31991;DHT22;18508;49.386;8.370;2022-09-04T12:07:09;26.30;56.00
31991;DHT22;18508;49.386;8.370;2022-09-04T12:13:04;26.80;61.50
31991;DHT22;18508;49.386;8.370;2022-09-04T12:19:51;27.10;51.40
31991;DHT22;18508;49.386;8.370;2022-09-04T12:22:36;27.30;54.30
31991;DHT22;18508;49.386;8.370;2022-09-04T12:25:27;27.20;51.50
31991;DHT22;18508;49.386;8.370;2022-09-04T12:28:43;27.20;49.90
31991;DHT22;18508;49.386;8.370;2022-09-04T12:31:42;27.10;49.60
31991;DHT22;18508;49.386;8.370;2022-09-04T12:34:40;27.40;46.00
31991;DHT22;18508;49.386;8.370;2022-09-04T12:37:26;27.90;37.40
31991;DHT22;18508;49.386;8.370;2022-09-04T12:40:11;27.80;36.50
31991;DHT22;18508;49.386;8.370;2022-09-04T12:42:45;27.70;27.80
31991;DHT22;18508;49.386;8.370;2022-09-04T12:45:20;27.90;25.60
31991;DHT22;18508;49.386;8.370;2022-09-04T12:47:58;27.90;7.10
31991;DHT22;18508;49.386;8.370;2022-09-04T12:50:33;28.00;19.00
31991;DHT22;18508;49.386;8.370;2022-09-04T12:53:26;28.10;14.30
31991;DHT22;18508;49.386;8.370;2022-09-04T12:56:03;28.00;2.70
31991;DHT22;18508;49.386;8.370;2022-09-04T13:01:49;27.60;8.50
31991;DHT22;18508;49.386;8.370;2022-09-04T13:04:28;27.90;1.90
31991;DHT22;18508;49.386;8.370;2022-09-04T13:07:13;28.30;7.80
31991;DHT22;18508;49.386;8.370;2022-09-04T13:09:56;28.30;1.00
31991;DHT22;18508;49.386;8.370;2022-09-04T13:12:33;28.30;1.00
31991;DHT22;18508;49.386;8.370;2022-09-04T13:15:16;28.30;1.00
31991;DHT22;18508;49.386;8.370;2022-09-04T13:17:55;28.40;1.00
31991;DHT22;18508;49.386;8.370;2022-09-04T13:20:31;28.20;1.00
31991;DHT22;18508;49.386;8.370;2022-09-04T13:23:18;28.20;1.00
31991;DHT22;18508;49.386;8.370;2022-09-04T13:26:04;28.20;1.00
31991;DHT22;18508;49.386;8.370;2022-09-04T13:28:45;28.40;1.00
31991;DHT22;18508;49.386;8.370;2022-09-04T13:34:19;28.50;1.00
31991;DHT22;18508;49.386;8.370;2022-09-04T13:37:01;28.70;1.00
31991;DHT22;18508;49.386;8.370;2022-09-04T13:40:09;28.50;1.00
31991;DHT22;18508;49.386;8.370;2022-09-04T13:43:10;28.80;1.00
31991;DHT22;18508;49.386;8.370;2022-09-04T13:45:45;28.70;1.00
31991;DHT22;18508;49.386;8.370;2022-09-04T13:48:32;28.70;1.00
31991;DHT22;18508;49.386;8.370;2022-09-04T13:51:08;28.70;1.00
31991;DHT22;18508;49.386;8.370;2022-09-04T13:53:50;28.80;1.00
31991;DHT22;18508;49.386;8.370;2022-09-04T13:56:26;28.90;1.00
31991;DHT22;18508;49.386;8.370;2022-09-04T13:59:00;29.20;1.00
31991;DHT22;18508;49.386;8.370;2022-09-04T14:01:36;29.30;1.00
31991;DHT22;18508;49.386;8.370;2022-09-04T14:04:14;29.30;1.00
31991;DHT22;18508;49.386;8.370;2022-09-04T14:06:45;29.90;1.00
31991;DHT22;18508;49.386;8.370;2022-09-04T14:09:14;30.40;1.00
31991;DHT22;18508;49.386;8.370;2022-09-04T14:17:50;32.00;1.00
31991;DHT22;18508;49.386;8.370;2022-09-04T14:20:25;32.10;1.00
31991;DHT22;18508;49.386;8.370;2022-09-04T14:23:03;32.30;1.00
31991;DHT22;18508;49.386;8.370;2022-09-04T14:25:40;32.50;1.00
31991;DHT22;18508;49.386;8.370;2022-09-04T14:28:17;32.70;1.00
31991;DHT22;18508;49.386;8.370;2022-09-04T14:30:58;33.20;1.00
31991;DHT22;18508;49.386;8.370;2022-09-04T14:33:43;33.10;1.00
31991;DHT22;18508;49.386;8.370;2022-09-04T14:36:21;32.90;1.00
31991;DHT22;18508;49.386;8.370;2022-09-04T14:42:05;33.60;1.00
31991;DHT22;18508;49.386;8.370;2022-09-04T14:44:50;33.90;1.00
31991;DHT22;18508;49.386;8.370;2022-09-04T14:47:30;34.10;1.00
31991;DHT22;18508;49.386;8.370;2022-09-04T14:50:07;34.10;1.00
31991;DHT22;18508;49.386;8.370;2022-09-04T14:52:39;34.10;1.00
31991;DHT22;18508;49.386;8.370;2022-09-04T14:55:12;34.50;1.00
31991;DHT22;18508;49.386;8.370;2022-09-04T14:57:45;34.50;1.00
31991;DHT22;18508;49.386;8.370;2022-09-04T15:00:17;34.30;1.00
31991;DHT22;18508;49.386;8.370;2022-09-04T15:02:53;34.40;1.00
31991;DHT22;18508;49.386;8.370;2022-09-04T15:05:27;34.20;1.00
31991;DHT22;18508;49.386;8.370;2022-09-04T15:07:57;34.40;1.00
31991;DHT22;18508;49.386;8.370;2022-09-04T15:10:32;34.60;1.00
31991;DHT22;18508;49.386;8.370;2022-09-04T15:13:30;34.20;1.00
31991;DHT22;18508;49.386;8.370;2022-09-04T15:16:10;34.10;1.00
31991;DHT22;18508;49.386;8.370;2022-09-04T15:18:49;34.60;1.00
31991;DHT22;18508;49.386;8.370;2022-09-04T15:21:30;34.60;1.00
31991;DHT22;18508;49.386;8.370;2022-09-04T15:24:13;34.10;1.00
31991;DHT22;18508;49.386;8.370;2022-09-04T15:26:48;34.00;1.00
31991;DHT22;18508;49.386;8.370;2022-09-04T15:29:21;34.60;1.00
31991;DHT22;18508;49.386;8.370;2022-09-04T15:32:02;34.40;1.00
31991;DHT22;18508;49.386;8.370;2022-09-04T15:34:35;34.70;1.00
31991;DHT22;18508;49.386;8.370;2022-09-04T15:37:18;35.20;1.00
31991;DHT22;18508;49.386;8.370;2022-09-04T15:39:56;35.20;1.00
31991;DHT22;18508;49.386;8.370;2022-09-04T15:42:44;34.60;1.00
31991;DHT22;18508;49.386;8.370;2022-09-04T15:45:21;34.60;1.00
31991;DHT22;18508;49.386;8.370;2022-09-04T15:48:02;34.80;1.00
31991;DHT22;18508;49.386;8.370;2022-09-04T15:50:36;34.40;99.90
31991;DHT22;18508;49.386;8.370;2022-09-04T15:53:13;35.10;1.00
31991;DHT22;18508;49.386;8.370;2022-09-04T15:56:05;35.10;99.90
31991;DHT22;18508;49.386;8.370;2022-09-04T15:58:40;34.80;99.90
31991;DHT22;18508;49.386;8.370;2022-09-04T16:01:13;35.10;99.90
31991;DHT22;18508;49.386;8.370;2022-09-04T16:03:59;35.10;99.90
31991;DHT22;18508;49.386;8.370;2022-09-04T16:06:37;35.30;99.90
31991;DHT22;18508;49.386;8.370;2022-09-04T16:09:21;35.10;99.90
31991;DHT22;18508;49.386;8.370;2022-09-04T16:11:59;34.90;99.90
31991;DHT22;18508;49.386;8.370;2022-09-04T16:14:36;34.80;99.90
31991;DHT22;18508;49.386;8.370;2022-09-04T16:17:12;34.80;99.90
31991;DHT22;18508;49.386;8.370;2022-09-04T16:19:45;34.80;99.90
31991;DHT22;18508;49.386;8.370;2022-09-04T16:22:25;34.60;99.90
31991;DHT22;18508;49.386;8.370;2022-09-04T16:25:05;33.60;99.90
31991;DHT22;18508;49.386;8.370;2022-09-04T16:27:41;32.90;99.90
31991;DHT22;18508;49.386;8.370;2022-09-04T16:30:24;32.10;99.90
31991;DHT22;18508;49.386;8.370;2022-09-04T16:32:56;30.90;99.90
31991;DHT22;18508;49.386;8.370;2022-09-04T16:35:27;30.20;1.00
31991;DHT22;18508;49.386;8.370;2022-09-04T16:38:05;29.70;1.00
31991;DHT22;18508;49.386;8.370;2022-09-04T16:40:39;29.30;1.00
31991;DHT22;18508;49.386;8.370;2022-09-04T16:43:19;29.00;1.00
31991;DHT22;18508;49.386;8.370;2022-09-04T16:45:51;28.60;1.00
31991;DHT22;18508;49.386;8.370;2022-09-04T16:48:24;28.50;1.00
31991;DHT22;18508;49.386;8.370;2022-09-04T16:51:05;28.40;1.00
31991;DHT22;18508;49.386;8.370;2022-09-04T16:53:56;28.20;99.90
31991;DHT22;18508;49.386;8.370;2022-09-04T16:56:35;28.00;99.90
31991;DHT22;18508;49.386;8.370;2022-09-04T16:59:19;27.70;99.90
31991;DHT22;18508;49.386;8.370;2022-09-04T17:01:58;27.40;99.90
31991;DHT22;18508;49.386;8.370;2022-09-04T17:04:34;27.40;99.90
31991;DHT22;18508;49.386;8.370;2022-09-04T17:07:15;27.10;99.90
31991;DHT22;18508;49.386;8.370;2022-09-04T17:09:51;27.10;1.00
31991;DHT22;18508;49.386;8.370;2022-09-04T17:12:29;27.00;1.00
31991;DHT22;18508;49.386;8.370;2022-09-04T17:15:08;26.90;1.00
31991;DHT22;18508;49.386;8.370;2022-09-04T17:17:40;26.90;1.00
31991;DHT22;18508;49.386;8.370;2022-09-04T17:20:11;26.80;1.00
31991;DHT22;18508;49.386;8.370;2022-09-04T17:22:56;26.70;1.00
31991;DHT22;18508;49.386;8.370;2022-09-04T17:25:51;26.60;1.00
31991;DHT22;18508;49.386;8.370;2022-09-04T17:28:49;26.50;1.00
31991;DHT22;18508;49.386;8.370;2022-09-04T17:31:43;26.40;1.00
31991;DHT22;18508;49.386;8.370;2022-09-04T17:34:40;26.30;1.00
31991;DHT22;18508;49.386;8.370;2022-09-04T17:37:34;25.20;1.00
31991;DHT22;18508;49.386;8.370;2022-09-04T17:40:28;26.00;1.00
31991;DHT22;18508;49.386;8.370;2022-09-04T17:43:24;25.80;1.00
31991;DHT22;18508;49.386;8.370;2022-09-04T17:46:05;25.50;1.00
31991;DHT22;18508;49.386;8.370;2022-09-04T17:48:39;25.30;1.00
31991;DHT22;18508;49.386;8.370;2022-09-04T17:51:15;25.10;1.00
31991;DHT22;18508;49.386;8.370;2022-09-04T17:53:49;24.80;10.60
31991;DHT22;18508;49.386;8.370;2022-09-04T17:56:22;24.60;17.20
31991;DHT22;18508;49.386;8.370;2022-09-04T17:58:54;24.40;23.30
31991;DHT22;18508;49.386;8.370;2022-09-04T18:01:29;24.20;25.40
31991;DHT22;18508;49.386;8.370;2022-09-04T18:04:14;24.00;31.80
31991;DHT22;18508;49.386;8.370;2022-09-04T18:06:57;23.90;56.80
31991;DHT22;18508;49.386;8.370;2022-09-04T18:09:58;23.80;63.50
31991;DHT22;18508;49.386;8.370;2022-09-04T18:12:32;23.70;76.60
31991;DHT22;18508;49.386;8.370;2022-09-04T18:15:08;23.50;74.80
31991;DHT22;18508;49.386;8.370;2022-09-04T18:18:04;23.40;64.40
31991;DHT22;18508;49.386;8.370;2022-09-04T18:20:39;23.30;77.50
31991;DHT22;18508;49.386;8.370;2022-09-04T18:23:20;23.20;75.20
31991;DHT22;18508;49.386;8.370;2022-09-04T18:25:56;23.10;72.70
31991;DHT22;18508;49.386;8.370;2022-09-04T18:28:30;22.90;88.10
31991;DHT22;18508;49.386;8.370;2022-09-04T18:31:05;22.80;96.80
31991;DHT22;18508;49.386;8.370;2022-09-04T18:34:11;22.70;99.90
31991;DHT22;18508;49.386;8.370;2022-09-04T18:37:10;22.60;99.90
31991;DHT22;18508;49.386;8.370;2022-09-04T18:40:05;22.40;99.90
31991;DHT22;18508;49.386;8.370;2022-09-04T18:42:53;22.30;99.90
31991;DHT22;18508;49.386;8.370;2022-09-04T18:45:47;22.20;99.90
31991;DHT22;18508;49.386;8.370;2022-09-04T18:48:38;22.00;99.90
31991;DHT22;18508;49.386;8.370;2022-09-04T18:51:31;22.00;99.90
31991;DHT22;18508;49.386;8.370;2022-09-04T18:54:08;21.80;99.90
31991;DHT22;18508;49.386;8.370;2022-09-04T18:56:43;21.70;99.90
31991;DHT22;18508;49.386;8.370;2022-09-04T18:59:16;21.70;99.90
31991;DHT22;18508;49.386;8.370;2022-09-04T19:01:50;21.60;99.90
31991;DHT22;18508;49.386;8.370;2022-09-04T19:04:40;21.50;99.90